sensor_id;sensor_type;location;lat;lon;timestamp;temperature;humidity
1786;DHT22;890;48.158;11.540;2023-03-13T00:00:29;9.20;81.70
1786;DHT22;890;48.158;11.540;2023-03-13T00:02:55;9.20;81.50
1786;DHT22;890;48.158;11.540;2023-03-13T00:05:20;9.20;81.40
1786;DHT22;890;48.158;11.540;2023-03-13T00:07:46;9.10;81.20
1786;DHT22;890;48.158;11.540;2023-03-13T00:10:12;9.10;81.20
1786;DHT22;890;48.158;11.540;2023-03-13T00:12:37;9.00;81.10
1786;DHT22;890;48.158;11.540;2023-03-13T00:15:03;9.00;81.30
1786;DHT22;890;48.158;11.540;2023-03-13T00:17:28;9.00;81.20
1786;DHT22;890;48.158;11.540;2023-03-13T00:19:54;9.00;81.20
1786;DHT22;890;48.158;11.540;2023-03-13T00:22:20;8.90;81.00
1786;DHT22;890;48.158;11.540;2023-03-13T00:24:45;8.90;81.00
1786;DHT22;890;48.158;11.540;2023-03-13T00:27:11;8.90;81.10
1786;DHT22;890;48.158;11.540;2023-03-13T00:29:37;8.70;80.90
1786;DHT22;890;48.158;11.540;2023-03-13T00:32:02;8.80;80.90
1786;DHT22;890;48.158;11.540;2023-03-13T00:34:29;8.80;81.10
1786;DHT22;890;48.158;11.540;2023-03-13T00:36:54;8.80;80.90
1786;DHT22;890;48.158;11.540;2023-03-13T00:39:21;8.80;81.00
1786;DHT22;890;48.158;11.540;2023-03-13T00:41:46;8.70;80.90
1786;DHT22;890;48.158;11.540;2023-03-13T00:44:13;8.70;81.10
1786;DHT22;890;48.158;11.540;2023-03-13T00:46:38;8.60;81.00
1786;DHT22;890;48.158;11.540;2023-03-13T00:49:04;8.60;81.00
1786;DHT22;890;48.158;11.540;2023-03-13T00:51:30;8.60;81.00
1786;DHT22;890;48.158;11.540;2023-03-13T00:53:57;8.50;80.90
1786;DHT22;890;48.158;11.540;2023-03-13T00:56:25;8.40;81.00
1786;DHT22;890;48.158;11.540;2023-03-13T00:58:50;8.40;81.10
1786;DHT22;890;48.158;11.540;2023-03-13T01:01:24;8.40;81.20
1786;DHT22;890;48.158;11.540;2023-03-13T01:03:53;8.30;81.10
1786;DHT22;890;48.158;11.540;2023-03-13T01:06:21;8.20;81.00
1786;DHT22;890;48.158;11.540;2023-03-13T01:08:47;8.20;81.40
1786;DHT22;890;48.158;11.540;2023-03-13T01:11:19;8.20;81.50
1786;DHT22;890;48.158;11.540;2023-03-13T01:13:45;8.00;81.50
1786;DHT22;890;48.158;11.540;2023-03-13T01:16:15;8.00;81.70
1786;DHT22;890;48.158;11.540;2023-03-13T01:18:46;8.00;81.80
1786;DHT22;890;48.158;11.540;2023-03-13T01:21:13;8.00;81.90
1786;DHT22;890;48.158;11.540;2023-03-13T01:23:39;7.90;81.80
1786;DHT22;890;48.158;11.540;2023-03-13T01:26:06;7.90;81.90
1786;DHT22;890;48.158;11.540;2023-03-13T01:28:33;7.90;82.00
1786;DHT22;890;48.158;11.540;2023-03-13T01:31:00;7.90;82.20
1786;DHT22;890;48.158;11.540;2023-03-13T01:33:25;7.80;82.30
1786;DHT22;890;48.158;11.540;2023-03-13T01:35:51;7.80;82.40
1786;DHT22;890;48.158;11.540;2023-03-13T01:38:16;7.80;82.40
1786;DHT22;890;48.158;11.540;2023-03-13T01:40:44;7.70;82.50
1786;DHT22;890;48.158;11.540;2023-03-13T01:43:24;7.70;82.60
1786;DHT22;890;48.158;11.540;2023-03-13T01:46:04;7.60;82.70
1786;DHT22;890;48.158;11.540;2023-03-13T01:59:27;7.50;82.70
1786;DHT22;890;48.158;11.540;2023-03-13T02:01:56;7.50;82.50
1786;DHT22;890;48.158;11.540;2023-03-13T02:04:25;7.50;82.70
1786;DHT22;890;48.158;11.540;2023-03-13T02:06:54;7.50;82.70
1786;DHT22;890;48.158;11.540;2023-03-13T02:09:24;7.50;82.60
1786;DHT22;890;48.158;11.540;2023-03-13T02:14:32;7.50;82.60
1786;DHT22;890;48.158;11.540;2023-03-13T02:16:58;7.50;82.70
1786;DHT22;890;48.158;11.540;2023-03-13T02:19:39;7.60;82.90
1786;DHT22;890;48.158;11.540;2023-03-13T02:27:40;7.40;82.70
1786;DHT22;890;48.158;11.540;2023-03-13T02:30:09;7.40;82.90
1786;DHT22;890;48.158;11.540;2023-03-13T02:32:35;7.30;83.10
1786;DHT22;890;48.158;11.540;2023-03-13T02:35:08;7.30;83.30
1786;DHT22;890;48.158;11.540;2023-03-13T02:37:35;7.30;83.40
1786;DHT22;890;48.158;11.540;2023-03-13T02:40:05;7.30;83.50
1786;DHT22;890;48.158;11.540;2023-03-13T02:42:34;7.30;83.50
1786;DHT22;890;48.158;11.540;2023-03-13T02:45:00;7.30;83.50
1786;DHT22;890;48.158;11.540;2023-03-13T02:47:26;7.30;83.50
1786;DHT22;890;48.158;11.540;2023-03-13T02:49:52;7.30;83.60
1786;DHT22;890;48.158;11.540;2023-03-13T02:52:22;7.30;83.50
1786;DHT22;890;48.158;11.540;2023-03-13T02:54:52;7.30;83.60
1786;DHT22;890;48.158;11.540;2023-03-13T02:57:19;7.30;83.50
1786;DHT22;890;48.158;11.540;2023-03-13T02:59:45;7.30;83.70
1786;DHT22;890;48.158;11.540;2023-03-13T03:02:10;7.30;83.80
1786;DHT22;890;48.158;11.540;2023-03-13T03:04:36;7.30;84.40
1786;DHT22;890;48.158;11.540;2023-03-13T03:07:02;7.30;83.80
1786;DHT22;890;48.158;11.540;2023-03-13T03:09:28;7.30;83.90
1786;DHT22;890;48.158;11.540;2023-03-13T03:11:53;7.30;84.00
1786;DHT22;890;48.158;11.540;2023-03-13T03:14:19;7.30;84.00
1786;DHT22;890;48.158;11.540;2023-03-13T03:16:44;7.30;83.70
1786;DHT22;890;48.158;11.540;2023-03-13T03:19:10;7.30;83.80
1786;DHT22;890;48.158;11.540;2023-03-13T03:21:36;7.30;83.80
1786;DHT22;890;48.158;11.540;2023-03-13T03:24:02;7.30;83.80
1786;DHT22;890;48.158;11.540;2023-03-13T03:26:28;7.30;84.00
1786;DHT22;890;48.158;11.540;2023-03-13T03:28:53;7.40;83.90
1786;DHT22;890;48.158;11.540;2023-03-13T03:31:19;7.40;83.90
1786;DHT22;890;48.158;11.540;2023-03-13T03:33:45;7.40;83.80
1786;DHT22;890;48.158;11.540;2023-03-13T03:36:14;7.40;83.90
1786;DHT22;890;48.158;11.540;2023-03-13T03:38:40;7.40;83.70
1786;DHT22;890;48.158;11.540;2023-03-13T03:41:07;7.40;83.60
1786;DHT22;890;48.158;11.540;2023-03-13T03:43:33;7.50;83.50
1786;DHT22;890;48.158;11.540;2023-03-13T03:45:59;7.50;83.40
1786;DHT22;890;48.158;11.540;2023-03-13T03:48:24;7.50;83.40
1786;DHT22;890;48.158;11.540;2023-03-13T03:50:50;7.50;83.30
1786;DHT22;890;48.158;11.540;2023-03-13T03:53:15;7.50;83.30
1786;DHT22;890;48.158;11.540;2023-03-13T03:55:41;7.50;83.10
1786;DHT22;890;48.158;11.540;2023-03-13T03:58:07;7.50;83.10
1786;DHT22;890;48.158;11.540;2023-03-13T04:00:32;7.40;83.00
1786;DHT22;890;48.158;11.540;2023-03-13T04:02:58;7.40;82.90
1786;DHT22;890;48.158;11.540;2023-03-13T04:05:23;7.40;82.90
1786;DHT22;890;48.158;11.540;2023-03-13T04:07:49;7.40;82.90
1786;DHT22;890;48.158;11.540;2023-03-13T04:10:15;7.40;82.70
1786;DHT22;890;48.158;11.540;2023-03-13T04:12:41;7.40;82.70
1786;DHT22;890;48.158;11.540;2023-03-13T04:15:07;7.40;82.70
1786;DHT22;890;48.158;11.540;2023-03-13T04:17:33;7.40;82.70
1786;DHT22;890;48.158;11.540;2023-03-13T04:19:59;7.40;82.80
1786;DHT22;890;48.158;11.540;2023-03-13T04:22:24;7.40;82.70
1786;DHT22;890;48.158;11.540;2023-03-13T04:24:50;7.40;82.70
1786;DHT22;890;48.158;11.540;2023-03-13T04:27:16;7.50;82.60
1786;DHT22;890;48.158;11.540;2023-03-13T04:29:42;7.50;82.50
1786;DHT22;890;48.158;11.540;2023-03-13T04:32:07;7.50;82.50
1786;DHT22;890;48.158;11.540;2023-03-13T04:34:33;7.50;82.50
1786;DHT22;890;48.158;11.540;2023-03-13T04:36:59;7.50;82.30
1786;DHT22;890;48.158;11.540;2023-03-13T04:39:24;7.50;82.30
1786;DHT22;890;48.158;11.540;2023-03-13T04:41:54;7.50;82.20
1786;DHT22;890;48.158;11.540;2023-03-13T04:44:20;7.40;82.00
1786;DHT22;890;48.158;11.540;2023-03-13T04:46:46;7.50;82.00
1786;DHT22;890;48.158;11.540;2023-03-13T04:49:12;7.50;82.10
1786;DHT22;890;48.158;11.540;2023-03-13T04:51:39;7.50;82.00
1786;DHT22;890;48.158;11.540;2023-03-13T04:54:05;7.50;82.00
1786;DHT22;890;48.158;11.540;2023-03-13T04:56:30;7.40;82.00
1786;DHT22;890;48.158;11.540;2023-03-13T04:58:56;7.50;82.00
1786;DHT22;890;48.158;11.540;2023-03-13T05:01:21;7.50;82.00
1786;DHT22;890;48.158;11.540;2023-03-13T05:03:47;7.50;81.80
1786;DHT22;890;48.158;11.540;2023-03-13T05:06:13;7.50;81.80
1786;DHT22;890;48.158;11.540;2023-03-13T05:08:38;7.50;81.70
1786;DHT22;890;48.158;11.540;2023-03-13T05:11:04;7.50;81.70
1786;DHT22;890;48.158;11.540;2023-03-13T05:13:30;7.50;81.50
1786;DHT22;890;48.158;11.540;2023-03-13T05:15:56;7.50;81.30
1786;DHT22;890;48.158;11.540;2023-03-13T05:18:21;7.60;81.30
1786;DHT22;890;48.158;11.540;2023-03-13T05:20:47;7.60;81.30
1786;DHT22;890;48.158;11.540;2023-03-13T05:23:13;7.60;81.30
1786;DHT22;890;48.158;11.540;2023-03-13T05:25:39;7.60;81.20
1786;DHT22;890;48.158;11.540;2023-03-13T05:28:04;7.70;81.20
1786;DHT22;890;48.158;11.540;2023-03-13T05:30:30;7.70;81.00
1786;DHT22;890;48.158;11.540;2023-03-13T05:32:55;7.70;80.90
1786;DHT22;890;48.158;11.540;2023-03-13T05:35:21;7.80;80.70
1786;DHT22;890;48.158;11.540;2023-03-13T05:37:46;7.80;80.60
1786;DHT22;890;48.158;11.540;2023-03-13T05:40:12;7.80;80.60
1786;DHT22;890;48.158;11.540;2023-03-13T05:42:38;7.90;80.50
1786;DHT22;890;48.158;11.540;2023-03-13T05:45:04;7.90;80.40
1786;DHT22;890;48.158;11.540;2023-03-13T05:47:30;7.90;80.20
1786;DHT22;890;48.158;11.540;2023-03-13T05:49:55;8.00;80.00
1786;DHT22;890;48.158;11.540;2023-03-13T05:52:21;8.00;79.90
1786;DHT22;890;48.158;11.540;2023-03-13T05:54:46;8.10;79.80
1786;DHT22;890;48.158;11.540;2023-03-13T05:57:12;8.10;79.60
1786;DHT22;890;48.158;11.540;2023-03-13T05:59:38;8.10;79.40
1786;DHT22;890;48.158;11.540;2023-03-13T06:02:03;8.20;79.90
1786;DHT22;890;48.158;11.540;2023-03-13T06:04:29;8.20;79.30
1786;DHT22;890;48.158;11.540;2023-03-13T06:06:54;8.20;79.00
1786;DHT22;890;48.158;11.540;2023-03-13T06:09:20;8.30;79.00
1786;DHT22;890;48.158;11.540;2023-03-13T06:11:46;8.30;78.80
1786;DHT22;890;48.158;11.540;2023-03-13T06:14:11;8.40;78.70
1786;DHT22;890;48.158;11.540;2023-03-13T06:16:37;8.50;78.50
1786;DHT22;890;48.158;11.540;2023-03-13T06:19:02;8.60;78.30
1786;DHT22;890;48.158;11.540;2023-03-13T06:21:28;8.70;78.00
1786;DHT22;890;48.158;11.540;2023-03-13T06:23:54;8.80;78.00
1786;DHT22;890;48.158;11.540;2023-03-13T06:26:20;8.90;77.80
1786;DHT22;890;48.158;11.540;2023-03-13T06:28:48;9.00;77.60
1786;DHT22;890;48.158;11.540;2023-03-13T06:31:14;9.20;77.50
1786;DHT22;890;48.158;11.540;2023-03-13T06:33:40;9.30;77.10
1786;DHT22;890;48.158;11.540;2023-03-13T06:36:06;9.30;76.90
1786;DHT22;890;48.158;11.540;2023-03-13T06:38:32;9.40;76.70
1786;DHT22;890;48.158;11.540;2023-03-13T06:40:57;9.50;76.50
1786;DHT22;890;48.158;11.540;2023-03-13T06:43:23;9.60;76.20
1786;DHT22;890;48.158;11.540;2023-03-13T06:45:49;9.70;76.00
1786;DHT22;890;48.158;11.540;2023-03-13T06:48:15;9.80;75.80
1786;DHT22;890;48.158;11.540;2023-03-13T06:50:41;9.80;75.40
1786;DHT22;890;48.158;11.540;2023-03-13T06:53:09;9.90;75.30
1786;DHT22;890;48.158;11.540;2023-03-13T06:55:38;10.00;74.00
1786;DHT22;890;48.158;11.540;2023-03-13T06:58:03;10.00;73.60
1786;DHT22;890;48.158;11.540;2023-03-13T07:00:29;10.00;73.50
1786;DHT22;890;48.158;11.540;2023-03-13T07:02:55;10.00;72.40
1786;DHT22;890;48.158;11.540;2023-03-13T07:05:20;10.00;72.90
1786;DHT22;890;48.158;11.540;2023-03-13T07:10:12;10.10;71.50
1786;DHT22;890;48.158;11.540;2023-03-13T07:12:37;10.10;72.20
1786;DHT22;890;48.158;11.540;2023-03-13T07:15:04;10.20;72.00
1786;DHT22;890;48.158;11.540;2023-03-13T07:17:30;10.20;71.70
1786;DHT22;890;48.158;11.540;2023-03-13T07:19:55;10.20;71.50
1786;DHT22;890;48.158;11.540;2023-03-13T07:22:21;10.20;70.50
1786;DHT22;890;48.158;11.540;2023-03-13T07:24:47;10.30;71.30
1786;DHT22;890;48.158;11.540;2023-03-13T07:27:13;10.30;70.80
1786;DHT22;890;48.158;11.540;2023-03-13T07:29:38;10.40;70.60
1786;DHT22;890;48.158;11.540;2023-03-13T07:32:04;10.50;70.60
1786;DHT22;890;48.158;11.540;2023-03-13T07:34:30;10.60;70.40
1786;DHT22;890;48.158;11.540;2023-03-13T07:36:56;10.60;70.00
1786;DHT22;890;48.158;11.540;2023-03-13T07:39:21;10.80;69.90
1786;DHT22;890;48.158;11.540;2023-03-13T07:41:47;10.70;69.40
1786;DHT22;890;48.158;11.540;2023-03-13T07:44:13;10.70;69.20
1786;DHT22;890;48.158;11.540;2023-03-13T07:46:38;10.70;69.10
1786;DHT22;890;48.158;11.540;2023-03-13T07:49:04;10.70;68.80
1786;DHT22;890;48.158;11.540;2023-03-13T07:51:29;10.80;68.90
1786;DHT22;890;48.158;11.540;2023-03-13T07:53:55;10.90;68.80
1786;DHT22;890;48.158;11.540;2023-03-13T07:56:22;11.00;68.60
1786;DHT22;890;48.158;11.540;2023-03-13T07:58:48;11.20;68.00
1786;DHT22;890;48.158;11.540;2023-03-13T08:03:44;11.30;67.90
1786;DHT22;890;48.158;11.540;2023-03-13T08:06:13;11.40;66.60
1786;DHT22;890;48.158;11.540;2023-03-13T08:08:39;11.40;66.10
1786;DHT22;890;48.158;11.540;2023-03-13T08:11:08;11.50;66.60
1786;DHT22;890;48.158;11.540;2023-03-13T08:13:34;11.50;65.90
1786;DHT22;890;48.158;11.540;2023-03-13T08:16:06;11.60;66.70
1786;DHT22;890;48.158;11.540;2023-03-13T08:18:32;11.60;66.20
1786;DHT22;890;48.158;11.540;2023-03-13T08:21:23;11.70;66.20
1786;DHT22;890;48.158;11.540;2023-03-13T08:23:52;11.80;65.80
1786;DHT22;890;48.158;11.540;2023-03-13T08:26:20;11.90;66.10
1786;DHT22;890;48.158;11.540;2023-03-13T08:28:50;12.00;65.90
1786;DHT22;890;48.158;11.540;2023-03-13T08:31:20;12.20;65.70
1786;DHT22;890;48.158;11.540;2023-03-13T08:33:46;12.10;65.80
1786;DHT22;890;48.158;11.540;2023-03-13T08:36:16;12.10;65.90
1786;DHT22;890;48.158;11.540;2023-03-13T08:38:42;12.00;65.80
1786;DHT22;890;48.158;11.540;2023-03-13T08:41:10;11.90;66.00
1786;DHT22;890;48.158;11.540;2023-03-13T08:43:36;11.80;66.30
1786;DHT22;890;48.158;11.540;2023-03-13T08:46:02;11.80;66.60
1786;DHT22;890;48.158;11.540;2023-03-13T08:48:27;11.90;67.10
1786;DHT22;890;48.158;11.540;2023-03-13T08:51:06;12.00;67.90
1786;DHT22;890;48.158;11.540;2023-03-13T08:53:33;12.20;68.00
1786;DHT22;890;48.158;11.540;2023-03-13T08:55:59;12.40;68.20
1786;DHT22;890;48.158;11.540;2023-03-13T08:58:25;12.60;68.10
1786;DHT22;890;48.158;11.540;2023-03-13T09:00:51;12.80;68.30
1786;DHT22;890;48.158;11.540;2023-03-13T09:03:16;13.10;68.10
1786;DHT22;890;48.158;11.540;2023-03-13T09:05:43;13.40;68.10
1786;DHT22;890;48.158;11.540;2023-03-13T09:08:11;13.60;68.60
1786;DHT22;890;48.158;11.540;2023-03-13T09:10:36;14.10;70.20
1786;DHT22;890;48.158;11.540;2023-03-13T09:13:02;14.40;69.50
1786;DHT22;890;48.158;11.540;2023-03-13T09:15:28;14.70;68.80
1786;DHT22;890;48.158;11.540;2023-03-13T09:17:53;15.20;69.30
1786;DHT22;890;48.158;11.540;2023-03-13T09:20:19;15.30;68.50
1786;DHT22;890;48.158;11.540;2023-03-13T09:22:45;15.60;70.00
1786;DHT22;890;48.158;11.540;2023-03-13T09:25:12;16.20;76.60
1786;DHT22;890;48.158;11.540;2023-03-13T09:27:38;16.80;76.00
1786;DHT22;890;48.158;11.540;2023-03-13T09:30:05;17.60;77.70
1786;DHT22;890;48.158;11.540;2023-03-13T09:32:30;18.90;81.80
1786;DHT22;890;48.158;11.540;2023-03-13T09:34:56;20.40;84.40
1786;DHT22;890;48.158;11.540;2023-03-13T09:37:22;21.60;81.40
1786;DHT22;890;48.158;11.540;2023-03-13T09:39:47;22.60;73.20
1786;DHT22;890;48.158;11.540;2023-03-13T09:42:16;22.50;61.20
1786;DHT22;890;48.158;11.540;2023-03-13T09:45:02;21.40;55.30
1786;DHT22;890;48.158;11.540;2023-03-13T09:50:15;20.40;56.80
1786;DHT22;890;48.158;11.540;2023-03-13T09:52:43;20.70;60.20
1786;DHT22;890;48.158;11.540;2023-03-13T09:55:30;21.80;63.90
1786;DHT22;890;48.158;11.540;2023-03-13T09:58:20;22.60;62.20
1786;DHT22;890;48.158;11.540;2023-03-13T10:01:07;23.50;59.20
1786;DHT22;890;48.158;11.540;2023-03-13T10:06:34;23.90;58.30
1786;DHT22;890;48.158;11.540;2023-03-13T10:09:00;23.50;56.10
1786;DHT22;890;48.158;11.540;2023-03-13T10:11:30;23.50;55.50
1786;DHT22;890;48.158;11.540;2023-03-13T10:14:26;23.50;55.40
1786;DHT22;890;48.158;11.540;2023-03-13T10:19:46;23.30;55.10
1786;DHT22;890;48.158;11.540;2023-03-13T10:22:19;23.20;53.70
1786;DHT22;890;48.158;11.540;2023-03-13T10:25:08;22.80;52.10
1786;DHT22;890;48.158;11.540;2023-03-13T10:27:51;22.20;48.50
1786;DHT22;890;48.158;11.540;2023-03-13T10:30:30;22.00;49.90
1786;DHT22;890;48.158;11.540;2023-03-13T10:33:21;23.00;52.10
1786;DHT22;890;48.158;11.540;2023-03-13T10:35:59;23.40;49.40
1786;DHT22;890;48.158;11.540;2023-03-13T10:38:25;23.10;47.90
1786;DHT22;890;48.158;11.540;2023-03-13T10:40:59;23.00;46.90
1786;DHT22;890;48.158;11.540;2023-03-13T10:43:27;22.40;44.50
1786;DHT22;890;48.158;11.540;2023-03-13T10:45:53;21.60;44.50
1786;DHT22;890;48.158;11.540;2023-03-13T10:48:21;21.10;45.10
1786;DHT22;890;48.158;11.540;2023-03-13T10:50:49;20.80;45.70
1786;DHT22;890;48.158;11.540;2023-03-13T10:58:34;20.50;47.20
1786;DHT22;890;48.158;11.540;2023-03-13T11:03:42;20.90;47.90
1786;DHT22;890;48.158;11.540;2023-03-13T11:06:22;21.50;49.00
1786;DHT22;890;48.158;11.540;2023-03-13T11:08:48;21.50;46.60
1786;DHT22;890;48.158;11.540;2023-03-13T11:11:18;22.10;47.50
1786;DHT22;890;48.158;11.540;2023-03-13T11:13:45;22.40;47.30
1786;DHT22;890;48.158;11.540;2023-03-13T11:16:18;22.50;47.10
1786;DHT22;890;48.158;11.540;2023-03-13T11:21:41;21.60;45.10
1786;DHT22;890;48.158;11.540;2023-03-13T11:24:29;21.70;47.20
1786;DHT22;890;48.158;11.540;2023-03-13T11:27:06;21.90;47.80
1786;DHT22;890;48.158;11.540;2023-03-13T11:29:37;22.60;48.30
1786;DHT22;890;48.158;11.540;2023-03-13T11:32:16;23.40;49.40
1786;DHT22;890;48.158;11.540;2023-03-13T11:34:51;23.70;48.20
1786;DHT22;890;48.158;11.540;2023-03-13T11:37:18;23.90;47.40
1786;DHT22;890;48.158;11.540;2023-03-13T11:42:31;23.80;47.10
1786;DHT22;890;48.158;11.540;2023-03-13T11:48:14;24.10;46.70
1786;DHT22;890;48.158;11.540;2023-03-13T11:50:50;24.40;47.10
1786;DHT22;890;48.158;11.540;2023-03-13T11:53:45;24.50;47.60
1786;DHT22;890;48.158;11.540;2023-03-13T11:56:25;24.20;47.20
1786;DHT22;890;48.158;11.540;2023-03-13T11:59:20;24.20;47.70
1786;DHT22;890;48.158;11.540;2023-03-13T12:04:57;24.30;47.20
1786;DHT22;890;48.158;11.540;2023-03-13T12:07:37;24.50;47.10
1786;DHT22;890;48.158;11.540;2023-03-13T12:10:30;24.50;47.20
1786;DHT22;890;48.158;11.540;2023-03-13T12:13:04;24.50;46.90
1786;DHT22;890;48.158;11.540;2023-03-13T12:15:33;24.20;46.50
1786;DHT22;890;48.158;11.540;2023-03-13T12:18:29;24.20;46.50
1786;DHT22;890;48.158;11.540;2023-03-13T12:21:20;23.80;45.20
1786;DHT22;890;48.158;11.540;2023-03-13T12:32:01;21.80;44.50
1786;DHT22;890;48.158;11.540;2023-03-13T12:34:52;21.50;44.10
1786;DHT22;890;48.158;11.540;2023-03-13T12:37:59;21.00;44.40
1786;DHT22;890;48.158;11.540;2023-03-13T12:45:35;20.20;45.10
1786;DHT22;890;48.158;11.540;2023-03-13T12:48:22;19.90;45.40
1786;DHT22;890;48.158;11.540;2023-03-13T12:51:05;19.80;46.00
1786;DHT22;890;48.158;11.540;2023-03-13T12:59:29;19.90;46.50
1786;DHT22;890;48.158;11.540;2023-03-13T13:01:57;19.90;46.80
1786;DHT22;890;48.158;11.540;2023-03-13T13:04:29;19.90;46.80
1786;DHT22;890;48.158;11.540;2023-03-13T13:07:02;19.90;47.10
1786;DHT22;890;48.158;11.540;2023-03-13T13:09:34;20.00;47.50
1786;DHT22;890;48.158;11.540;2023-03-13T13:12:21;20.00;47.60
1786;DHT22;890;48.158;11.540;2023-03-13T13:25:40;19.70;48.40
1786;DHT22;890;48.158;11.540;2023-03-13T13:30:50;19.70;48.70
1786;DHT22;890;48.158;11.540;2023-03-13T13:35:47;19.80;49.00
1786;DHT22;890;48.158;11.540;2023-03-13T13:38:32;19.90;49.00
1786;DHT22;890;48.158;11.540;2023-03-13T13:43:43;20.10;49.00
1786;DHT22;890;48.158;11.540;2023-03-13T13:46:26;20.00;49.10
1786;DHT22;890;48.158;11.540;2023-03-13T13:51:31;19.80;48.80
1786;DHT22;890;48.158;11.540;2023-03-13T13:53:59;19.90;48.80
1786;DHT22;890;48.158;11.540;2023-03-13T13:56:45;19.70;48.80
1786;DHT22;890;48.158;11.540;2023-03-13T14:02:04;19.60;49.30
1786;DHT22;890;48.158;11.540;2023-03-13T14:04:59;19.60;49.50
1786;DHT22;890;48.158;11.540;2023-03-13T14:10:28;19.60;49.70
1786;DHT22;890;48.158;11.540;2023-03-13T14:12:56;19.80;49.50
1786;DHT22;890;48.158;11.540;2023-03-13T14:15:25;19.90;49.40
1786;DHT22;890;48.158;11.540;2023-03-13T14:18:07;19.80;49.20
1786;DHT22;890;48.158;11.540;2023-03-13T14:20:39;19.80;49.30
1786;DHT22;890;48.158;11.540;2023-03-13T14:23:07;19.80;49.20
1786;DHT22;890;48.158;11.540;2023-03-13T14:25:49;19.90;49.30
1786;DHT22;890;48.158;11.540;2023-03-13T14:28:23;19.80;49.20
1786;DHT22;890;48.158;11.540;2023-03-13T14:30:51;19.80;49.20
1786;DHT22;890;48.158;11.540;2023-03-13T14:33:17;19.80;49.40
1786;DHT22;890;48.158;11.540;2023-03-13T14:35:44;19.80;49.50
1786;DHT22;890;48.158;11.540;2023-03-13T14:38:21;19.90;49.50
1786;DHT22;890;48.158;11.540;2023-03-13T14:40:48;19.90;49.20
1786;DHT22;890;48.158;11.540;2023-03-13T14:45:50;19.80;49.10
1786;DHT22;890;48.158;11.540;2023-03-13T14:48:30;19.80;49.10
1786;DHT22;890;48.158;11.540;2023-03-13T14:51:20;19.80;49.20
1786;DHT22;890;48.158;11.540;2023-03-13T14:54:00;19.80;49.20
1786;DHT22;890;48.158;11.540;2023-03-13T14:56:38;19.80;49.20
1786;DHT22;890;48.158;11.540;2023-03-13T14:59:18;19.90;49.10
1786;DHT22;890;48.158;11.540;2023-03-13T15:02:12;19.90;49.00
1786;DHT22;890;48.158;11.540;2023-03-13T15:05:29;19.90;49.10
1786;DHT22;890;48.158;11.540;2023-03-13T15:07:55;19.90;49.20
1786;DHT22;890;48.158;11.540;2023-03-13T15:10:32;19.90;49.20
1786;DHT22;890;48.158;11.540;2023-03-13T15:15:47;19.80;49.30
1786;DHT22;890;48.158;11.540;2023-03-13T15:20:54;19.80;49.40
1786;DHT22;890;48.158;11.540;2023-03-13T15:23:21;19.70;49.40
1786;DHT22;890;48.158;11.540;2023-03-13T15:25:47;19.70;49.40
1786;DHT22;890;48.158;11.540;2023-03-13T15:28:18;19.80;49.30
1786;DHT22;890;48.158;11.540;2023-03-13T15:30:45;19.80;49.50
1786;DHT22;890;48.158;11.540;2023-03-13T15:33:17;19.70;49.50
1786;DHT22;890;48.158;11.540;2023-03-13T15:35:44;19.60;49.60
1786;DHT22;890;48.158;11.540;2023-03-13T15:38:13;19.70;49.80
1786;DHT22;890;48.158;11.540;2023-03-13T15:40:39;19.60;49.80
1786;DHT22;890;48.158;11.540;2023-03-13T15:43:05;19.70;49.90
1786;DHT22;890;48.158;11.540;2023-03-13T15:45:32;19.70;50.00
1786;DHT22;890;48.158;11.540;2023-03-13T15:47:58;19.70;49.80
1786;DHT22;890;48.158;11.540;2023-03-13T15:50:24;19.70;49.90
1786;DHT22;890;48.158;11.540;2023-03-13T15:52:55;19.60;49.90
1786;DHT22;890;48.158;11.540;2023-03-13T15:55:23;19.50;50.00
1786;DHT22;890;48.158;11.540;2023-03-13T15:57:50;19.50;50.10
1786;DHT22;890;48.158;11.540;2023-03-13T16:00:21;19.50;50.20
1786;DHT22;890;48.158;11.540;2023-03-13T16:02:47;19.40;50.20
1786;DHT22;890;48.158;11.540;2023-03-13T16:05:13;19.40;50.20
1786;DHT22;890;48.158;11.540;2023-03-13T16:07:38;19.40;50.30
1786;DHT22;890;48.158;11.540;2023-03-13T16:10:19;19.40;50.30
1786;DHT22;890;48.158;11.540;2023-03-13T16:12:47;19.30;50.40
1786;DHT22;890;48.158;11.540;2023-03-13T16:15:12;19.20;50.30
1786;DHT22;890;48.158;11.540;2023-03-13T16:17:38;19.20;50.30
1786;DHT22;890;48.158;11.540;2023-03-13T16:20:15;19.10;50.30
1786;DHT22;890;48.158;11.540;2023-03-13T16:22:41;19.00;51.10
1786;DHT22;890;48.158;11.540;2023-03-13T16:25:07;19.00;50.60
1786;DHT22;890;48.158;11.540;2023-03-13T16:27:33;18.90;50.70
1786;DHT22;890;48.158;11.540;2023-03-13T16:29:59;18.80;50.80
1786;DHT22;890;48.158;11.540;2023-03-13T16:32:26;18.70;50.90
1786;DHT22;890;48.158;11.540;2023-03-13T16:34:52;18.70;50.90
1786;DHT22;890;48.158;11.540;2023-03-13T16:37:19;18.70;51.00
1786;DHT22;890;48.158;11.540;2023-03-13T16:39:45;18.60;51.10
1786;DHT22;890;48.158;11.540;2023-03-13T16:42:12;18.60;51.10
1786;DHT22;890;48.158;11.540;2023-03-13T16:44:38;18.50;51.00
1786;DHT22;890;48.158;11.540;2023-03-13T16:47:26;18.50;51.60
1786;DHT22;890;48.158;11.540;2023-03-13T16:49:52;18.40;51.20
1786;DHT22;890;48.158;11.540;2023-03-13T16:52:18;18.40;51.30
1786;DHT22;890;48.158;11.540;2023-03-13T16:54:44;18.40;51.40
1786;DHT22;890;48.158;11.540;2023-03-13T16:57:16;18.30;51.40
1786;DHT22;890;48.158;11.540;2023-03-13T16:59:42;18.30;51.50
1786;DHT22;890;48.158;11.540;2023-03-13T17:02:15;18.30;51.70
1786;DHT22;890;48.158;11.540;2023-03-13T17:04:42;18.10;51.80
1786;DHT22;890;48.158;11.540;2023-03-13T17:07:22;18.10;52.20
1786;DHT22;890;48.158;11.540;2023-03-13T17:09:50;18.00;52.80
1786;DHT22;890;48.158;11.540;2023-03-13T17:12:16;17.90;52.90
1786;DHT22;890;48.158;11.540;2023-03-13T17:14:43;17.80;53.20
1786;DHT22;890;48.158;11.540;2023-03-13T17:17:15;17.70;53.30
1786;DHT22;890;48.158;11.540;2023-03-13T17:19:41;17.60;53.70
1786;DHT22;890;48.158;11.540;2023-03-13T17:22:12;17.60;53.80
1786;DHT22;890;48.158;11.540;2023-03-13T17:24:38;17.30;53.80
1786;DHT22;890;48.158;11.540;2023-03-13T17:27:04;17.30;54.00
1786;DHT22;890;48.158;11.540;2023-03-13T17:29:30;17.30;54.20
1786;DHT22;890;48.158;11.540;2023-03-13T17:31:56;17.10;54.10
1786;DHT22;890;48.158;11.540;2023-03-13T17:34:22;17.10;54.20
1786;DHT22;890;48.158;11.540;2023-03-13T17:36:50;17.00;54.30
1786;DHT22;890;48.158;11.540;2023-03-13T17:39:15;16.90;54.30
1786;DHT22;890;48.158;11.540;2023-03-13T17:41:41;17.00;54.50
1786;DHT22;890;48.158;11.540;2023-03-13T17:44:07;16.90;54.50
1786;DHT22;890;48.158;11.540;2023-03-13T17:46:43;16.70;54.50
1786;DHT22;890;48.158;11.540;2023-03-13T17:49:15;16.60;54.70
1786;DHT22;890;48.158;11.540;2023-03-13T17:51:42;16.50;54.60
1786;DHT22;890;48.158;11.540;2023-03-13T17:54:09;16.50;54.70
1786;DHT22;890;48.158;11.540;2023-03-13T17:56:37;16.40;54.60
1786;DHT22;890;48.158;11.540;2023-03-13T17:59:05;16.30;54.50
1786;DHT22;890;48.158;11.540;2023-03-13T18:01:33;16.40;54.60
1786;DHT22;890;48.158;11.540;2023-03-13T18:03:59;16.30;54.50
1786;DHT22;890;48.158;11.540;2023-03-13T18:06:27;16.20;54.40